This is the latest recevied weather packets stored in our database for station/object SV9TNF-57. If no packets are shown the sender has not sent any weather packets the latest 10 day(s).
| Time | Temp. | Humidity | Pressure | Rain* | Wind** | Luminosity | Snow |
|---|---|---|---|---|---|---|---|
| 1787844697 | 32.22° C | 37% | 994.7 hPa | 0 mm | 10.28 m/s, 245° | - | - |
| 1787844396 | 32.22° C | 37% | 994.9 hPa | 0 mm | 5.36 m/s, 340° | - | - |
| 1787844097 | 32.22° C | 36% | 995.1 hPa | 0 mm | 7.6 m/s, 342° | - | - |
| 1787843796 | 32.22° C | 35% | 994.9 hPa | 0 mm | 9.83 m/s, 288° | - | - |
| 1787843496 | 32.78° C | 35% | 995 hPa | 0 mm | 6.71 m/s, 1° | - | - |
| 1787843197 | 32.78° C | 35% | 995.1 hPa | 0 mm | 8.49 m/s, 335° | - | - |
| 1787842896 | 32.78° C | 34% | 995.2 hPa | 0 mm | 9.83 m/s, 300° | - | - |
| 1787842596 | 32.78° C | 34% | 994.9 hPa | 0 mm | 3.13 m/s, 311° | - | - |
| 1787842296 | 32.78° C | 34% | 994.9 hPa | 0 mm | 8.94 m/s, 23° | - | - |
| 1787841996 | 33.33° C | 32% | 995.1 hPa | 0 mm | 2.68 m/s, 290° | - | - |
| 1787841696 | 33.33° C | 33% | 994.9 hPa | 0 mm | 7.15 m/s, 286° | - | - |
| 1787841395 | 33.33° C | 33% | 995 hPa | 0 mm | 1.34 m/s, 305° | - | - |
| 1787841095 | 32.78° C | 33% | 995 hPa | 0 mm | 7.6 m/s, 343° | - | - |
| 1787840795 | 33.33° C | 32% | 995 hPa | 0 mm | 9.39 m/s, 307° | - | - |
| 1787840495 | 33.33° C | 33% | 995.1 hPa | 0 mm | 11.62 m/s, 125° | - | - |
| 1787840195 | 33.33° C | 32% | 994.9 hPa | 0 mm | 6.26 m/s, 294° | - | - |
| 1787839895 | 33.89° C | 32% | 994.8 hPa | 0 mm | 4.47 m/s, 301° | - | - |
| 1787839595 | 33.89° C | 32% | 994.8 hPa | 0 mm | 9.39 m/s, 5° | - | - |
| 1787839295 | 33.89° C | 31% | 995 hPa | 0 mm | 1.34 m/s, 307° | - | - |
| 1787838995 | 33.89° C | 31% | 995 hPa | 0 mm | 8.49 m/s, 289° | - | - |
| 1787838695 | 33.33° C | 31% | 995 hPa | 0 mm | 8.49 m/s, 344° | - | - |
| 1787838395 | 33.33° C | 31% | 994.9 hPa | 0 mm | 13.41 m/s, 70° | - | - |
| 1787838095 | 33.33° C | 31% | 994.9 hPa | 0 mm | 6.71 m/s, 283° | - | - |
| 1787837795 | 33.33° C | 31% | 994.7 hPa | 0 mm | 9.39 m/s, 276° | - | - |
| 1787837495 | 33.33° C | 32% | 994.8 hPa | 0 mm | 10.73 m/s, 240° | - | - |
* Rain latest hour (hover to see other rain measurements)
** Current wind speed in m/s (hover to see current wind gust speed)